Weather at Sanatorio Guemes Heliport

Public forecast

Using degrees Celsius for public forecast. Weather courtesy of forecast.io.

Closest aviation weather report (METAR) to Sanatorio Guemes Heliport

Closest report is Jorge Newbery Airpark, 2.3 nm (4.2 km) N.

2024/05/28 01:27 (retrieved 40 minutes ago)

SABE 280127Z 19008KT 130V230 2700 DZ BR OVC008 09/08 Q1026 NOSIG

Closest aviation forecast (TAF) to Sanatorio Guemes Heliport

Forecast is more than 6 hours old.

Closest forecast is Rubem Berta Airport, 297.5 nm (551.0 km) NNE.

2024/05/27 18:00 (retrieved 8 hours ago)

TAF SBUG 271500Z 2718/2806 21012KT 9999 BKN010 TX10/2718Z TN07/2806Z BECMG 2719/2721 SCT015 BECMG 2802/2804 BKN008 RMK PDW